createdAt,value
2019-01-08T00:00:40.483Z,407.51
2019-01-08T00:01:40.491Z,408.88
2019-01-08T00:02:40.456Z,407.94
2019-01-08T00:03:40.456Z,406.42
2019-01-08T00:04:40.435Z,407.30
2019-01-08T00:05:40.415Z,409.28
2019-01-08T00:06:40.432Z,407.40
2019-01-08T00:07:40.399Z,409.47
2019-01-08T00:08:40.402Z,407.57
2019-01-08T00:09:40.370Z,406.88
2019-01-08T00:10:40.359Z,407.59
2019-01-08T00:11:40.376Z,408.57
2019-01-08T00:12:40.348Z,407.89
2019-01-08T00:13:40.336Z,407.96
2019-01-08T00:14:40.333Z,407.77
2019-01-08T00:15:40.308Z,408.73
2019-01-08T00:16:40.316Z,407.43
2019-01-08T00:17:40.284Z,408.00
2019-01-08T00:18:40.283Z,406.56
2019-01-08T00:19:40.270Z,407.80
2019-01-08T00:20:40.306Z,408.55
2019-01-08T00:21:40.264Z,409.08
2019-01-08T00:22:40.222Z,407.79
2019-01-08T00:23:40.222Z,407.58
2019-01-08T00:24:40.203Z,406.57
2019-01-08T00:25:40.203Z,407.96
2019-01-08T00:26:40.206Z,407.03
2019-01-08T00:27:40.171Z,408.41
2019-01-08T00:28:43.343Z,407.58
2019-01-08T00:29:40.157Z,409.42
2019-01-08T00:30:40.133Z,409.04
2019-01-08T00:31:40.155Z,407.99
2019-01-08T00:32:40.129Z,407.75
2019-01-08T00:33:40.107Z,408.32
2019-01-08T00:34:40.090Z,409.24
2019-01-08T00:35:40.076Z,407.61
2019-01-08T00:36:40.075Z,408.89
2019-01-08T00:37:40.078Z,407.48
2019-01-08T00:38:40.045Z,406.56
2019-01-08T00:39:40.035Z,407.58
2019-01-08T00:40:40.027Z,407.38
2019-01-08T00:41:40.031Z,408.46
2019-01-08T00:42:40.019Z,409.35
2019-01-08T00:43:40.004Z,408.96
2019-01-08T00:44:39.976Z,408.17
2019-01-08T00:45:39.970Z,407.44
2019-01-08T00:46:39.963Z,406.29
2019-01-08T00:47:39.969Z,409.04
2019-01-08T00:48:39.936Z,407.98
2019-01-08T00:49:39.936Z,408.35
2019-01-08T00:50:39.911Z,407.82
2019-01-08T00:51:39.903Z,409.27
2019-01-08T00:52:39.901Z,408.28
2019-01-08T00:53:39.876Z,406.98
2019-01-08T00:54:39.880Z,407.85
2019-01-08T00:55:39.858Z,408.26
2019-01-08T00:56:39.841Z,409.39
2019-01-08T00:57:39.859Z,408.09
2019-01-08T00:58:39.818Z,405.75
2019-01-08T00:59:39.802Z,406.38
2019-01-08T01:00:39.789Z,406.33
2019-01-08T01:01:39.792Z,407.01
2019-01-08T01:02:39.801Z,406.77
2019-01-08T01:03:39.766Z,408.11
2019-01-08T01:04:39.752Z,407.21
2019-01-08T01:05:39.832Z,406.91
2019-01-08T01:06:39.751Z,407.88
2019-01-08T01:07:39.736Z,407.66
2019-01-08T01:08:39.716Z,409.02
2019-01-08T01:09:39.705Z,408.39
2019-01-08T01:10:39.691Z,407.34
2019-01-08T01:11:39.676Z,408.44
2019-01-08T01:12:39.691Z,407.38
2019-01-08T01:13:39.646Z,407.47
2019-01-08T01:14:39.643Z,408.47
2019-01-08T01:15:39.630Z,407.76
2019-01-08T01:16:39.620Z,409.20
2019-01-08T01:17:39.611Z,408.26
2019-01-08T01:18:39.625Z,408.25
2019-01-08T01:19:39.587Z,407.78
2019-01-08T01:20:39.567Z,407.87
2019-01-08T01:21:39.564Z,407.54
2019-01-08T01:22:39.548Z,407.05
2019-01-08T01:23:39.558Z,409.21
2019-01-08T01:24:39.537Z,407.98
2019-01-08T01:25:39.522Z,408.03
2019-01-08T01:26:39.517Z,407.51
2019-01-08T01:27:39.502Z,406.83
2019-01-08T01:28:39.505Z,406.17
2019-01-08T01:29:39.468Z,407.34
2019-01-08T01:30:39.453Z,406.49
2019-01-08T01:31:39.449Z,408.27
2019-01-08T01:32:39.436Z,408.29
2019-01-08T01:33:39.439Z,408.80
2019-01-08T01:34:39.418Z,407.76
2019-01-08T01:35:39.414Z,408.28
2019-01-08T01:36:39.387Z,408.81
2019-01-08T01:37:39.384Z,408.57
2019-01-08T01:38:39.421Z,409.02
2019-01-08T01:39:39.375Z,408.80
2019-01-08T01:40:39.350Z,406.18
2019-01-08T01:41:39.344Z,408.23
2019-01-08T01:42:39.323Z,408.04
2019-01-08T01:43:39.332Z,407.41
2019-01-08T01:44:39.310Z,407.90
2019-01-08T01:45:39.310Z,406.80
2019-01-08T01:46:39.299Z,406.48
2019-01-08T01:47:39.283Z,408.07
2019-01-08T01:48:39.279Z,407.51
2019-01-08T01:49:39.243Z,407.38
2019-01-08T01:50:39.240Z,406.59
2019-01-08T01:51:39.223Z,407.72
2019-01-08T01:52:39.211Z,407.61
2019-01-08T01:53:39.244Z,407.38
2019-01-08T01:54:39.223Z,407.54
2019-01-08T01:55:39.185Z,408.05
2019-01-08T01:56:39.169Z,407.79
2019-01-08T01:57:39.169Z,407.49
2019-01-08T01:58:39.181Z,409.66
2019-01-08T01:59:39.142Z,407.56
2019-01-08T02:00:39.121Z,407.74
2019-01-08T02:01:39.113Z,407.48
2019-01-08T02:02:39.106Z,406.62
2019-01-08T02:03:39.101Z,406.28
2019-01-08T02:04:39.095Z,408.00
2019-01-08T02:05:39.061Z,407.81
2019-01-08T02:06:39.054Z,409.12
2019-01-08T02:07:39.045Z,408.86
2019-01-08T02:08:39.040Z,408.19
2019-01-08T02:09:39.040Z,408.17
2019-01-08T02:10:39.013Z,407.82
2019-01-08T02:11:38.996Z,407.32
2019-01-08T02:12:38.978Z,408.18
2019-01-08T02:13:38.989Z,406.87
2019-01-08T02:14:38.984Z,408.21
2019-01-08T02:15:38.988Z,407.48
2019-01-08T02:16:38.958Z,406.10
2019-01-08T02:17:38.932Z,407.82
2019-01-08T02:18:38.913Z,409.23
2019-01-08T02:19:38.922Z,407.13
2019-01-08T02:20:38.892Z,407.54
2019-01-08T02:21:38.878Z,407.38
2019-01-08T02:22:38.883Z,407.94
2019-01-08T02:23:38.867Z,406.12
2019-01-08T02:24:38.862Z,408.71
2019-01-08T02:25:38.860Z,408.89
2019-01-08T02:26:38.835Z,408.09
2019-01-08T02:27:38.814Z,407.54
2019-01-08T02:28:38.810Z,408.75
2019-01-08T02:29:38.810Z,407.31
2019-01-08T02:30:38.782Z,409.29
2019-01-08T02:31:38.770Z,407.53
2019-01-08T02:32:38.766Z,407.75
2019-01-08T02:33:38.750Z,407.17
2019-01-08T02:34:38.751Z,407.37
2019-01-08T02:35:38.732Z,408.56
2019-01-08T02:36:38.707Z,407.71
2019-01-08T02:37:38.716Z,408.60
2019-01-08T02:38:38.690Z,406.58
2019-01-08T02:39:38.713Z,407.85
2019-01-08T02:40:38.661Z,407.02
2019-01-08T02:41:38.659Z,407.36
2019-01-08T02:42:38.644Z,408.12
2019-01-08T02:43:38.638Z,408.30
2019-01-08T02:44:38.687Z,408.05
2019-01-08T02:45:38.622Z,408.43
2019-01-08T02:46:38.685Z,407.13
2019-01-08T02:47:38.608Z,406.84
2019-01-08T02:48:38.588Z,408.27
2019-01-08T02:49:38.568Z,409.45
2019-01-08T02:50:38.582Z,407.45
2019-01-08T02:51:38.540Z,407.65
2019-01-08T02:52:38.541Z,407.76
2019-01-08T02:53:38.527Z,406.68
2019-01-08T02:54:38.610Z,407.44
2019-01-08T02:55:38.516Z,406.99
2019-01-08T02:56:38.492Z,407.45
2019-01-08T02:57:38.480Z,406.98
2019-01-08T02:58:38.460Z,407.21
2019-01-08T02:59:38.457Z,406.40
2019-01-08T03:00:38.462Z,408.67
2019-01-08T03:01:38.437Z,407.68
2019-01-08T03:02:38.429Z,408.00
2019-01-08T03:03:38.420Z,407.70
2019-01-08T03:04:38.401Z,406.50
2019-01-08T03:05:38.407Z,407.92
2019-01-08T03:06:38.379Z,408.00
2019-01-08T03:07:38.379Z,407.18
2019-01-08T03:08:38.355Z,407.51
2019-01-08T03:09:38.339Z,406.82
2019-01-08T03:10:38.350Z,407.27
2019-01-08T03:11:38.317Z,408.41
2019-01-08T03:12:38.315Z,406.19
2019-01-08T03:13:38.312Z,408.10
2019-01-08T03:14:38.290Z,405.88
2019-01-08T03:15:38.301Z,407.13
2019-01-08T03:16:38.268Z,406.29
2019-01-08T03:17:38.297Z,407.10
2019-01-08T03:18:38.249Z,407.08
2019-01-08T03:19:38.240Z,406.97
2019-01-08T03:20:38.252Z,407.58
2019-01-08T03:21:38.213Z,407.87
2019-01-08T03:22:38.206Z,407.05
2019-01-08T03:23:38.190Z,408.27
2019-01-08T03:24:38.181Z,406.93
2019-01-08T03:25:38.186Z,408.02
2019-01-08T03:26:38.152Z,406.76
2019-01-08T03:27:38.196Z,407.53
2019-01-08T03:28:38.162Z,407.18
2019-01-08T03:29:38.126Z,408.22
2019-01-08T03:30:38.149Z,407.49
2019-01-08T03:31:38.124Z,406.84
2019-01-08T03:32:38.091Z,406.04
2019-01-08T03:33:38.079Z,407.36
2019-01-08T03:34:38.066Z,407.33
2019-01-08T03:35:38.054Z,407.11
2019-01-08T03:36:38.068Z,408.02
2019-01-08T03:37:38.042Z,408.56
2019-01-08T03:38:38.021Z,406.59
2019-01-08T03:39:38.021Z,408.05
2019-01-08T03:40:38.006Z,409.31
2019-01-08T03:41:38.009Z,406.60
2019-01-08T03:42:37.977Z,407.27
2019-01-08T03:43:37.964Z,408.53
2019-01-08T03:44:37.951Z,407.90
2019-01-08T03:45:37.938Z,407.95
2019-01-08T03:46:37.970Z,407.22
2019-01-08T03:47:37.924Z,408.06
2019-01-08T03:48:37.905Z,407.85
2019-01-08T03:49:37.904Z,407.54
2019-01-08T03:50:37.878Z,408.92
2019-01-08T03:51:37.968Z,408.77
2019-01-08T03:52:37.926Z,407.50
2019-01-08T03:53:37.866Z,406.94
2019-01-08T03:54:37.827Z,407.59
2019-01-08T03:55:37.834Z,406.42
2019-01-08T03:56:37.840Z,408.71
2019-01-08T03:57:37.844Z,408.97
2019-01-08T03:58:37.793Z,408.17
2019-01-08T03:59:41.968Z,407.06
2019-01-08T04:00:37.761Z,408.85
2019-01-08T04:01:37.784Z,407.84
2019-01-08T04:02:37.758Z,408.00
2019-01-08T04:03:37.743Z,407.47
2019-01-08T04:04:37.729Z,407.13
2019-01-08T04:05:37.711Z,407.29
2019-01-08T04:06:37.707Z,407.69
2019-01-08T04:07:37.689Z,407.45
2019-01-08T04:08:37.682Z,408.56
2019-01-08T04:09:37.671Z,407.68
2019-01-08T04:10:37.667Z,407.93
2019-01-08T04:11:37.681Z,409.02
2019-01-08T04:12:37.641Z,407.30
2019-01-08T04:13:37.635Z,408.96
2019-01-08T04:14:37.611Z,407.86
2019-01-08T04:15:37.609Z,407.24
2019-01-08T04:16:37.598Z,408.32
2019-01-08T04:17:37.614Z,407.67
2019-01-08T04:18:37.563Z,406.63
2019-01-08T04:19:37.565Z,408.55
2019-01-08T04:20:37.594Z,406.80
2019-01-08T04:21:37.533Z,407.90
2019-01-08T04:22:37.551Z,407.53
2019-01-08T04:23:37.519Z,406.73
2019-01-08T04:24:37.507Z,409.04
2019-01-08T04:25:37.485Z,408.08
2019-01-08T04:26:37.481Z,407.79
2019-01-08T04:27:37.491Z,407.32
2019-01-08T04:28:37.468Z,408.80
2019-01-08T04:29:37.439Z,407.34
2019-01-08T04:30:37.427Z,406.47
2019-01-08T04:31:37.424Z,406.97
2019-01-08T04:32:37.425Z,408.86
2019-01-08T04:33:37.405Z,408.41
2019-01-08T04:34:37.386Z,408.34
2019-01-08T04:35:37.370Z,409.11
2019-01-08T04:36:37.368Z,408.74
2019-01-08T04:37:37.379Z,408.58
2019-01-08T04:38:37.393Z,409.37
2019-01-08T04:39:37.355Z,408.56
2019-01-08T04:40:37.318Z,408.65
2019-01-08T04:41:37.300Z,407.84
2019-01-08T04:42:37.316Z,407.79
2019-01-08T04:43:37.298Z,406.39
2019-01-08T04:44:37.275Z,407.90
2019-01-08T04:45:37.274Z,408.50
2019-01-08T04:46:37.246Z,408.70
2019-01-08T04:47:37.261Z,407.92
2019-01-08T04:48:37.258Z,408.74
2019-01-08T04:49:37.234Z,408.81
2019-01-08T04:50:37.218Z,409.43
2019-01-08T04:51:37.212Z,409.19
2019-01-08T04:52:37.302Z,408.47
2019-01-08T04:53:37.177Z,408.52
2019-01-08T04:54:37.176Z,408.78
2019-01-08T04:55:37.240Z,409.40
2019-01-08T04:56:37.154Z,407.08
2019-01-08T04:57:37.132Z,409.28
2019-01-08T04:58:37.146Z,408.49
2019-01-08T04:59:37.108Z,408.07
2019-01-08T05:00:37.108Z,409.71
2019-01-08T05:01:37.089Z,408.63
2019-01-08T05:02:37.081Z,408.97
2019-01-08T05:03:37.086Z,408.28
2019-01-08T05:04:37.046Z,407.95
2019-01-08T05:05:37.038Z,407.89
2019-01-08T05:06:37.042Z,409.19
2019-01-08T05:07:37.019Z,410.35
2019-01-08T05:08:37.027Z,409.19
2019-01-08T05:09:36.995Z,410.61
2019-01-08T05:10:36.986Z,408.62
2019-01-08T05:11:36.974Z,410.19
2019-01-08T05:12:36.970Z,410.42
2019-01-08T05:13:36.971Z,410.28
2019-01-08T05:14:36.940Z,409.94
2019-01-08T05:15:36.924Z,410.09
2019-01-08T05:16:36.914Z,410.39
2019-01-08T05:17:36.899Z,410.02
2019-01-08T05:18:36.971Z,409.75
2019-01-08T05:19:36.881Z,411.11
2019-01-08T05:20:36.877Z,409.69
2019-01-08T05:21:36.850Z,410.34
2019-01-08T05:22:36.843Z,410.64
2019-01-08T05:23:36.845Z,410.20
2019-01-08T05:24:36.830Z,410.15
2019-01-08T05:25:36.823Z,409.97
2019-01-08T05:26:36.793Z,409.50
2019-01-08T05:27:36.799Z,411.36
2019-01-08T05:28:36.805Z,411.08
2019-01-08T05:29:36.773Z,410.20
2019-01-08T05:30:36.751Z,410.07
2019-01-08T05:31:36.745Z,410.20
2019-01-08T05:32:36.726Z,408.96
2019-01-08T05:33:36.731Z,410.53
2019-01-08T05:34:36.717Z,409.92
2019-01-08T05:35:36.719Z,408.90
2019-01-08T05:36:36.684Z,409.35
2019-01-08T05:37:36.721Z,410.76
2019-01-08T05:38:36.693Z,410.55
2019-01-08T05:39:36.669Z,410.79
2019-01-08T05:40:36.645Z,410.40
2019-01-08T05:41:36.650Z,410.88
2019-01-08T05:42:36.615Z,412.65
2019-01-08T05:43:36.639Z,410.43
2019-01-08T05:44:36.618Z,410.89
2019-01-08T05:45:36.589Z,410.79
2019-01-08T05:46:36.582Z,410.62
2019-01-08T05:47:36.583Z,408.96
2019-01-08T05:48:36.569Z,410.12
2019-01-08T05:49:36.866Z,410.24
2019-01-08T05:50:36.567Z,409.60
2019-01-08T05:51:36.521Z,410.69
2019-01-08T05:52:36.530Z,410.91
2019-01-08T05:53:36.501Z,411.62
2019-01-08T05:54:36.508Z,409.88
2019-01-08T05:55:36.471Z,409.36
2019-01-08T05:56:36.465Z,410.95
2019-01-08T05:57:36.451Z,410.27
2019-01-08T05:58:36.441Z,410.70
2019-01-08T05:59:36.449Z,411.73
2019-01-08T06:00:36.422Z,410.01
2019-01-08T06:01:36.399Z,411.35
2019-01-08T06:02:36.400Z,411.11
2019-01-08T06:03:36.383Z,411.40
2019-01-08T06:04:36.398Z,411.15
2019-01-08T06:05:36.360Z,411.63
2019-01-08T06:06:36.369Z,411.12
2019-01-08T06:07:36.336Z,410.55
2019-01-08T06:08:36.332Z,411.11
2019-01-08T06:09:36.351Z,411.09
2019-01-08T06:10:36.309Z,410.51
2019-01-08T06:11:36.300Z,410.44
2019-01-08T06:12:36.277Z,411.06
2019-01-08T06:13:36.269Z,408.92
2019-01-08T06:14:36.930Z,410.55
2019-01-08T06:15:36.259Z,412.00
2019-01-08T06:16:36.235Z,412.56
2019-01-08T06:17:36.238Z,411.98
2019-01-08T06:18:36.209Z,410.24
2019-01-08T06:19:36.232Z,410.28
2019-01-08T06:20:36.252Z,412.63
2019-01-08T06:21:36.197Z,411.96
2019-01-08T06:22:36.180Z,411.23
2019-01-08T06:23:36.161Z,410.61
2019-01-08T06:24:36.184Z,411.80
2019-01-08T06:25:36.132Z,410.76
2019-01-08T06:26:36.126Z,411.99
2019-01-08T06:27:36.113Z,411.57
2019-01-08T06:28:36.107Z,411.04
2019-01-08T06:29:36.080Z,410.06
2019-01-08T06:30:36.102Z,411.28
2019-01-08T06:31:36.072Z,412.05
2019-01-08T06:32:36.070Z,412.56
2019-01-08T06:33:36.034Z,412.91
2019-01-08T06:34:36.035Z,410.00
2019-01-08T06:35:36.077Z,411.72
2019-01-08T06:36:36.029Z,411.53
2019-01-08T06:37:36.005Z,410.80
2019-01-08T06:38:35.987Z,412.41
2019-01-08T06:39:35.985Z,411.98
2019-01-08T06:40:35.979Z,413.77
2019-01-08T06:41:35.954Z,412.53
2019-01-08T06:42:35.952Z,411.27
2019-01-08T06:43:35.936Z,411.95
2019-01-08T06:44:35.926Z,411.42
2019-01-08T06:45:35.923Z,412.03
2019-01-08T06:46:42.948Z,413.46
2019-01-08T06:47:36.890Z,410.63
2019-01-08T06:48:35.874Z,411.68
2019-01-08T06:49:35.861Z,411.73
2019-01-08T06:50:35.868Z,412.49
2019-01-08T06:51:35.854Z,412.62
2019-01-08T06:52:35.827Z,412.48
2019-01-08T06:53:35.807Z,410.97
2019-01-08T06:54:35.814Z,411.13
2019-01-08T06:55:35.817Z,410.77
2019-01-08T06:56:35.799Z,412.41
2019-01-08T06:57:37.064Z,412.43
2019-01-08T06:58:35.780Z,410.40
2019-01-08T06:59:35.749Z,410.93
2019-01-08T07:00:35.762Z,411.65
2019-01-08T07:01:35.725Z,411.39
2019-01-08T07:02:35.733Z,411.77
2019-01-08T07:03:35.716Z,410.91
2019-01-08T07:04:35.689Z,409.80
2019-01-08T07:05:35.722Z,411.89
2019-01-08T07:06:35.673Z,411.26
2019-01-08T07:07:35.672Z,412.11
2019-01-08T07:08:35.689Z,412.30
2019-01-08T07:09:35.643Z,411.53
2019-01-08T07:10:35.631Z,411.31
2019-01-08T07:11:35.640Z,412.12
2019-01-08T07:12:35.690Z,411.88
2019-01-08T07:13:35.601Z,411.43
2019-01-08T07:14:35.581Z,411.58
2019-01-08T07:15:35.579Z,410.54
2019-01-08T07:16:35.590Z,411.38
2019-01-08T07:17:35.547Z,410.76
2019-01-08T07:18:35.544Z,411.58
2019-01-08T07:19:35.525Z,412.28
2019-01-08T07:20:35.523Z,411.48
2019-01-08T07:21:35.553Z,411.21
2019-01-08T07:22:35.488Z,410.20
2019-01-08T07:23:35.493Z,412.72
2019-01-08T07:24:35.471Z,411.83
2019-01-08T07:25:42.074Z,412.42
2019-01-08T07:26:36.479Z,412.66
2019-01-08T07:27:35.458Z,412.56
2019-01-08T07:28:35.433Z,411.43
2019-01-08T07:29:35.421Z,411.26
2019-01-08T07:30:41.518Z,412.13
2019-01-08T07:31:36.421Z,412.63
2019-01-08T07:32:35.395Z,411.54
2019-01-08T07:33:35.382Z,412.69
2019-01-08T07:34:35.357Z,411.14
2019-01-08T07:35:35.374Z,411.81
2019-01-08T07:36:35.359Z,412.40
2019-01-08T07:37:35.327Z,409.48
2019-01-08T07:38:35.332Z,412.06
2019-01-08T07:39:35.310Z,412.46
2019-01-08T07:40:35.336Z,412.85
2019-01-08T07:41:35.290Z,411.56
2019-01-08T07:42:35.276Z,413.03
2019-01-08T07:43:35.255Z,410.91
2019-01-08T07:44:35.248Z,412.20
2019-01-08T07:45:35.233Z,411.16
2019-01-08T07:46:35.256Z,410.95
2019-01-08T07:47:35.206Z,412.31
2019-01-08T07:48:35.208Z,412.26
2019-01-08T07:49:35.183Z,412.29
2019-01-08T07:50:35.164Z,411.90
2019-01-08T07:51:35.178Z,412.73
2019-01-08T07:52:35.176Z,412.87
2019-01-08T07:53:35.156Z,412.69
2019-01-08T07:54:35.964Z,411.96
2019-01-08T07:55:35.122Z,411.96
2019-01-08T07:56:35.118Z,413.03
2019-01-08T07:57:35.119Z,411.82
2019-01-08T07:58:35.083Z,412.91
2019-01-08T07:59:35.078Z,410.90
2019-01-08T08:00:35.115Z,412.25
2019-01-08T08:01:35.052Z,412.73
2019-01-08T08:02:35.070Z,411.26
2019-01-08T08:03:35.035Z,410.71
2019-01-08T08:04:35.024Z,411.89
2019-01-08T08:05:35.004Z,410.85
2019-01-08T08:06:34.998Z,410.71
2019-01-08T08:07:35.009Z,411.51
2019-01-08T08:08:34.978Z,412.40
2019-01-08T08:09:34.980Z,412.53
2019-01-08T08:10:34.942Z,411.68
2019-01-08T08:11:34.943Z,413.06
2019-01-08T08:12:34.951Z,411.30
2019-01-08T08:13:34.935Z,412.06
2019-01-08T08:14:34.914Z,412.86
2019-01-08T08:15:34.901Z,412.19
2019-01-08T08:16:34.887Z,411.31
2019-01-08T08:17:34.892Z,411.82
2019-01-08T08:18:34.874Z,411.02
2019-01-08T08:19:34.899Z,414.06
2019-01-08T08:20:34.912Z,411.12
2019-01-08T08:21:34.827Z,412.23
2019-01-08T08:22:34.839Z,412.10
2019-01-08T08:23:34.810Z,412.82
2019-01-08T08:24:34.802Z,412.58
2019-01-08T08:25:34.787Z,411.81
2019-01-08T08:26:34.776Z,413.72
2019-01-08T08:27:34.807Z,413.23
2019-01-08T08:28:34.753Z,413.60
2019-01-08T08:29:34.749Z,412.53
2019-01-08T08:30:34.734Z,412.06
2019-01-08T08:31:34.823Z,414.53
2019-01-08T08:32:34.738Z,413.22
2019-01-08T08:33:34.683Z,411.83
2019-01-08T08:34:34.686Z,413.58
2019-01-08T08:35:34.665Z,412.25
2019-01-08T08:36:34.662Z,413.54
2019-01-08T08:37:34.645Z,413.20
2019-01-08T08:38:34.774Z,412.90
2019-01-08T08:39:34.681Z,412.83
2019-01-08T08:40:34.641Z,412.53
2019-01-08T08:41:34.601Z,414.57
2019-01-08T08:42:34.597Z,413.55
2019-01-08T08:43:34.599Z,411.83
2019-01-08T08:44:34.574Z,411.92
2019-01-08T08:45:34.558Z,411.59
2019-01-08T08:46:34.559Z,414.15
2019-01-08T08:47:34.539Z,411.88
2019-01-08T08:48:34.543Z,414.24
2019-01-08T08:49:34.509Z,412.63
2019-01-08T08:50:35.375Z,412.25
2019-01-08T08:51:34.489Z,412.02
2019-01-08T08:52:34.486Z,412.68
2019-01-08T08:53:34.478Z,412.86
2019-01-08T08:54:34.495Z,413.07
2019-01-08T08:55:34.460Z,413.16
2019-01-08T08:56:34.435Z,412.80
2019-01-08T08:57:34.428Z,411.71
2019-01-08T08:58:34.430Z,412.82
2019-01-08T08:59:34.408Z,412.75
2019-01-08T09:00:34.383Z,413.12
2019-01-08T09:01:34.378Z,412.26
2019-01-08T09:02:34.362Z,412.89
2019-01-08T09:03:34.370Z,414.28
2019-01-08T09:04:34.345Z,413.54
2019-01-08T09:05:34.340Z,413.43
2019-01-08T09:06:34.311Z,412.06
2019-01-08T09:07:34.333Z,413.39
2019-01-08T09:08:34.332Z,412.86
2019-01-08T09:09:34.302Z,412.48
2019-01-08T09:10:34.282Z,412.76
2019-01-08T09:11:34.273Z,412.25
2019-01-08T09:12:34.252Z,413.77
2019-01-08T09:13:34.265Z,411.79
2019-01-08T09:14:34.236Z,413.53
2019-01-08T09:15:34.220Z,411.46
2019-01-08T09:16:34.220Z,413.51
2019-01-08T09:17:34.199Z,412.41
2019-01-08T09:18:34.204Z,411.91
2019-01-08T09:19:34.180Z,411.06
2019-01-08T09:20:34.181Z,411.86
2019-01-08T09:21:34.163Z,411.34
2019-01-08T09:22:34.159Z,410.83
2019-01-08T09:23:34.150Z,412.07
2019-01-08T09:24:34.122Z,411.06
2019-01-08T09:25:34.116Z,413.43
2019-01-08T09:26:34.104Z,412.07
2019-01-08T09:27:34.107Z,413.54
2019-01-08T09:28:34.086Z,412.21
2019-01-08T09:29:34.067Z,412.25
2019-01-08T09:30:34.048Z,411.51
2019-01-08T09:31:34.053Z,413.22
2019-01-08T09:32:34.034Z,412.38
2019-01-08T09:33:34.022Z,414.11
2019-01-08T09:34:34.021Z,412.57
2019-01-08T09:35:33.993Z,411.18
2019-01-08T09:36:33.982Z,412.50
2019-01-08T09:37:33.989Z,413.26
2019-01-08T09:38:33.975Z,413.72
2019-01-08T09:39:34.011Z,412.94
2019-01-08T09:40:33.938Z,412.93
2019-01-08T09:41:33.927Z,412.06
2019-01-08T09:42:34.010Z,411.92
2019-01-08T09:43:33.915Z,414.01
2019-01-08T09:44:33.921Z,412.12
2019-01-08T09:45:33.883Z,411.62
2019-01-08T09:46:33.891Z,412.98
2019-01-08T09:47:33.859Z,411.18
2019-01-08T09:48:33.849Z,413.62
2019-01-08T09:49:33.854Z,413.62
2019-01-08T09:50:33.838Z,411.23
2019-01-08T09:51:33.829Z,412.94
2019-01-08T09:52:33.810Z,413.69
2019-01-08T09:53:33.799Z,412.17
2019-01-08T09:54:33.809Z,413.53
2019-01-08T09:55:33.775Z,412.25
2019-01-08T09:56:33.759Z,412.97
2019-01-08T09:57:33.766Z,413.09
2019-01-08T09:58:33.733Z,411.14
2019-01-08T09:59:35.566Z,411.10
2019-01-08T10:00:33.710Z,411.79
2019-01-08T10:01:33.725Z,413.75
2019-01-08T10:02:33.697Z,414.17
2019-01-08T10:03:33.690Z,412.24
2019-01-08T10:04:33.695Z,411.76
2019-01-08T10:05:33.663Z,412.99
2019-01-08T10:06:33.648Z,413.51
2019-01-08T10:07:33.635Z,414.03
2019-01-08T10:08:33.630Z,413.93
2019-01-08T10:09:33.633Z,414.67
2019-01-08T10:10:33.610Z,413.23
2019-01-08T10:11:33.595Z,414.36
2019-01-08T10:12:33.589Z,412.23
2019-01-08T10:13:33.565Z,413.40
2019-01-08T10:14:33.578Z,413.20
2019-01-08T10:15:33.563Z,413.63
2019-01-08T10:16:33.538Z,413.83
2019-01-08T10:17:33.525Z,412.44
2019-01-08T10:18:33.567Z,412.86
2019-01-08T10:19:33.535Z,413.65
2019-01-08T10:20:33.523Z,413.34
2019-01-08T10:21:33.501Z,412.75
2019-01-08T10:22:33.472Z,414.26
2019-01-08T10:23:33.450Z,411.90
2019-01-08T10:24:33.470Z,412.84
2019-01-08T10:25:33.435Z,413.50
2019-01-08T10:26:33.419Z,413.91
2019-01-08T10:27:33.416Z,412.51
2019-01-08T10:28:33.410Z,413.07
2019-01-08T10:29:33.409Z,412.78
2019-01-08T10:30:33.377Z,413.25
2019-01-08T10:31:33.371Z,413.64
2019-01-08T10:32:33.388Z,413.92
2019-01-08T10:33:33.346Z,413.53
2019-01-08T10:34:33.350Z,414.20
2019-01-08T10:35:33.336Z,412.77
2019-01-08T10:36:33.317Z,411.26
2019-01-08T10:37:33.316Z,411.01
2019-01-08T10:38:33.290Z,415.03
2019-01-08T10:39:33.321Z,414.72
2019-01-08T10:40:33.256Z,414.38
2019-01-08T10:41:33.263Z,412.44
2019-01-08T10:42:33.236Z,414.05
2019-01-08T10:43:33.253Z,411.82
2019-01-08T10:44:33.252Z,413.72
2019-01-08T10:45:34.524Z,414.21
2019-01-08T10:46:37.377Z,412.96
2019-01-08T10:47:33.187Z,412.88
2019-01-08T10:48:33.171Z,415.33
2019-01-08T10:49:33.187Z,415.77
2019-01-08T10:50:33.153Z,411.08
2019-01-08T10:51:33.137Z,412.92
2019-01-08T10:52:33.136Z,412.58
2019-01-08T10:53:33.118Z,414.41
2019-01-08T10:54:33.107Z,413.00
2019-01-08T10:55:33.123Z,412.66
2019-01-08T10:56:33.084Z,414.50
2019-01-08T10:57:33.064Z,414.92
2019-01-08T10:58:33.067Z,412.84
2019-01-08T10:59:33.048Z,413.91
2019-01-08T11:00:33.055Z,414.06
2019-01-08T11:01:40.302Z,413.08
2019-01-08T11:02:34.017Z,411.88
2019-01-08T11:03:33.038Z,414.00
2019-01-08T11:04:33.013Z,415.33
2019-01-08T11:05:33.000Z,412.38
2019-01-08T11:06:32.970Z,413.63
2019-01-08T11:07:33.010Z,415.55
2019-01-08T11:08:32.951Z,414.34
2019-01-08T11:09:32.947Z,411.86
2019-01-08T11:10:32.941Z,414.80
2019-01-08T11:11:34.361Z,413.95
2019-01-08T11:12:32.946Z,414.68
2019-01-08T11:13:32.916Z,411.78
2019-01-08T11:14:32.885Z,413.02
2019-01-08T11:15:32.925Z,413.59
2019-01-08T11:16:32.870Z,411.97
2019-01-08T11:17:32.879Z,413.08
2019-01-08T11:18:32.846Z,411.05
2019-01-08T11:19:32.825Z,411.98
2019-01-08T11:20:32.833Z,413.24
2019-01-08T11:21:32.801Z,412.65
2019-01-08T11:22:32.794Z,411.92
2019-01-08T11:23:32.786Z,415.45
2019-01-08T11:24:32.779Z,413.98
2019-01-08T11:25:32.803Z,415.50
2019-01-08T11:26:32.761Z,412.48
2019-01-08T11:27:32.732Z,413.73
2019-01-08T11:28:32.731Z,412.05
2019-01-08T11:29:32.723Z,413.46
2019-01-08T11:30:32.689Z,412.66
2019-01-08T11:31:32.702Z,412.39
2019-01-08T11:32:32.670Z,413.04
2019-01-08T11:33:32.675Z,414.17
2019-01-08T11:34:32.664Z,411.95
2019-01-08T11:35:32.648Z,413.54
2019-01-08T11:36:32.655Z,412.79
2019-01-08T11:37:32.626Z,413.15
2019-01-08T11:38:32.610Z,413.35
2019-01-08T11:39:32.651Z,413.25
2019-01-08T11:40:32.604Z,412.16
2019-01-08T11:41:32.605Z,413.48
2019-01-08T11:42:32.565Z,414.16
2019-01-08T11:43:32.590Z,414.05
2019-01-08T11:44:32.590Z,413.37
2019-01-08T11:45:32.557Z,410.92
2019-01-08T11:46:32.538Z,414.55
2019-01-08T11:47:32.513Z,417.05
2019-01-08T11:48:32.497Z,412.43
2019-01-08T11:49:32.483Z,415.10
2019-01-08T11:50:32.493Z,413.81
2019-01-08T11:51:32.488Z,414.38
2019-01-08T11:52:32.460Z,414.39
2019-01-08T11:53:32.445Z,411.03
2019-01-08T11:54:40.643Z,413.00
2019-01-08T11:55:33.425Z,411.92
2019-01-08T11:56:32.426Z,412.41
2019-01-08T11:57:32.416Z,411.16
2019-01-08T11:58:32.380Z,410.66
2019-01-08T11:59:32.376Z,414.55
2019-01-08T12:00:32.369Z,412.71
2019-01-08T12:01:32.384Z,413.63
2019-01-08T12:02:32.346Z,413.08
2019-01-08T12:03:32.322Z,412.47
2019-01-08T12:04:32.325Z,413.24
2019-01-08T12:05:32.309Z,412.98
2019-01-08T12:06:32.319Z,411.69
2019-01-08T12:07:32.285Z,412.47
2019-01-08T12:08:32.278Z,414.05
2019-01-08T12:09:32.263Z,413.89
2019-01-08T12:10:32.253Z,410.94
2019-01-08T12:11:32.263Z,412.72
2019-01-08T12:12:32.230Z,412.63
2019-01-08T12:13:32.216Z,413.81
2019-01-08T12:14:32.200Z,414.99
2019-01-08T12:15:32.183Z,414.67
2019-01-08T12:16:32.203Z,414.97
2019-01-08T12:17:32.182Z,411.66
2019-01-08T12:18:32.169Z,411.48
2019-01-08T12:19:32.152Z,416.10
2019-01-08T12:20:32.126Z,414.04
2019-01-08T12:21:32.136Z,410.94
2019-01-08T12:22:32.126Z,416.40
2019-01-08T12:23:32.114Z,412.53
2019-01-08T12:24:32.091Z,413.09
2019-01-08T12:25:32.094Z,414.31
2019-01-08T12:26:32.079Z,411.88
2019-01-08T12:27:32.060Z,414.58
2019-01-08T12:28:32.049Z,413.46